createdAt,value
2023-04-18T00:02:04.390Z,99605.11
2023-04-18T00:04:34.156Z,99606.32
2023-04-18T00:07:02.246Z,99606.15
2023-04-18T00:09:30.021Z,99607.56
2023-04-18T00:11:57.839Z,99608.07
2023-04-18T00:14:25.499Z,99611.73
2023-04-18T00:16:54.364Z,99613.65
2023-04-18T00:19:22.570Z,99609.64
2023-04-18T00:21:50.231Z,99609.30
2023-04-18T00:24:17.891Z,99607.55
2023-04-18T00:26:45.755Z,99611.90
2023-04-18T00:29:13.414Z,99614.00
2023-04-18T00:31:41.084Z,99612.77
2023-04-18T00:34:08.742Z,99618.69
2023-04-18T00:36:36.401Z,99628.27
2023-04-18T00:39:04.184Z,99631.41
2023-04-18T00:41:31.936Z,99626.54
2023-04-18T00:43:59.589Z,99629.33
2023-04-18T00:46:27.389Z,99628.45
2023-04-18T00:48:55.222Z,99626.17
2023-04-18T00:51:22.887Z,99624.95
2023-04-18T00:53:50.929Z,99627.92
2023-04-18T00:56:18.720Z,99623.41
2023-04-18T00:58:46.381Z,99623.92
2023-04-18T01:01:14.099Z,99621.65
2023-04-18T01:03:42.150Z,99618.51
2023-04-18T01:06:10.078Z,99617.12
2023-04-18T01:08:37.752Z,99620.60
2023-04-18T01:11:05.536Z,99617.98
2023-04-18T01:13:33.175Z,99616.08
2023-04-18T01:16:00.854Z,99618.50
2023-04-18T01:18:31.666Z,99621.48
2023-04-18T01:21:00.557Z,99618.33
2023-04-18T01:23:28.227Z,99620.08
2023-04-18T01:25:55.986Z,99619.21
2023-04-18T01:28:23.754Z,99617.82
2023-04-18T01:30:51.585Z,99622.17
2023-04-18T01:33:19.481Z,99622.19
2023-04-18T01:35:47.245Z,99628.80
2023-04-18T01:38:15.009Z,99631.77
2023-04-18T01:40:42.670Z,99635.25
2023-04-18T01:43:10.654Z,99632.98
2023-04-18T01:45:38.405Z,99634.90
2023-04-18T01:48:06.177Z,99636.12
2023-04-18T01:50:33.833Z,99641.17
2023-04-18T01:53:01.535Z,99641.70
2023-04-18T01:55:29.255Z,99641.70
2023-04-18T01:57:57.024Z,99643.27
2023-04-18T02:00:24.683Z,99643.27
2023-04-18T02:02:52.565Z,99645.02
2023-04-18T02:05:20.515Z,99646.58
2023-04-18T02:07:50.270Z,99643.45
2023-04-18T02:10:17.998Z,99643.09
2023-04-18T02:12:45.774Z,99640.30
2023-04-18T02:15:13.527Z,99639.95
2023-04-18T02:17:41.965Z,99639.27
2023-04-18T02:20:11.038Z,99641.70
2023-04-18T02:22:39.794Z,99640.31
2023-04-18T02:25:07.457Z,99639.44
2023-04-18T02:27:35.205Z,99641.70
2023-04-18T02:30:02.869Z,99644.66
2023-04-18T02:32:30.774Z,99642.92
2023-04-18T02:34:58.516Z,99637.69
2023-04-18T02:37:26.267Z,99635.60
2023-04-18T02:39:54.242Z,99636.46
2023-04-18T02:42:22.000Z,99637.34
2023-04-18T02:44:49.656Z,99637.69
2023-04-18T02:47:17.320Z,99642.20
2023-04-18T02:49:44.982Z,99640.64
2023-04-18T02:52:12.644Z,99642.70
2023-04-18T02:54:40.305Z,99640.78
2023-04-18T02:57:07.966Z,99645.47
2023-04-18T02:59:35.650Z,99650.52
2023-04-18T03:02:03.547Z,99650.52
2023-04-18T03:04:32.121Z,99651.73
2023-04-18T03:06:59.840Z,99647.91
2023-04-18T03:09:27.474Z,99649.82
2023-04-18T03:11:55.164Z,99648.42
2023-04-18T03:14:22.834Z,99652.77
2023-04-18T03:16:52.981Z,99654.86
2023-04-18T03:19:22.450Z,99654.16
2023-04-18T03:21:50.215Z,99653.98
2023-04-18T03:24:17.986Z,99656.23
2023-04-18T03:26:46.259Z,99655.88
2023-04-18T03:29:14.018Z,99658.67
2023-04-18T03:31:41.969Z,99659.90
2023-04-18T03:34:09.751Z,99663.20
2023-04-18T03:36:37.515Z,99664.23
2023-04-18T03:39:05.279Z,99663.71
2023-04-18T03:41:32.940Z,99669.80
2023-04-18T03:44:00.610Z,99674.70
2023-04-18T03:46:28.422Z,99680.45
2023-04-18T03:48:56.136Z,99682.02
2023-04-18T03:51:23.898Z,99683.92
2023-04-18T03:53:51.561Z,99686.02
2023-04-18T03:56:19.220Z,99690.20
2023-04-18T03:58:46.985Z,99686.90
2023-04-18T04:01:14.653Z,99691.09
2023-04-18T04:03:42.520Z,99696.48
2023-04-18T04:06:10.586Z,99695.08
2023-04-18T04:08:38.245Z,99698.05
2023-04-18T04:11:06.114Z,99700.14
2023-04-18T04:13:33.779Z,99702.38
2023-04-18T04:16:01.639Z,99706.41
2023-04-18T04:18:32.481Z,99712.34
2023-04-18T04:21:00.144Z,99709.02
2023-04-18T04:23:27.800Z,99712.33
2023-04-18T04:25:55.992Z,99715.79
2023-04-18T04:28:24.048Z,99722.23
2023-04-18T04:30:51.912Z,99727.80
2023-04-18T04:33:19.880Z,99726.42
2023-04-18T04:35:47.542Z,99731.30
2023-04-18T04:38:20.219Z,99731.98
2023-04-18T04:40:47.878Z,99731.45
2023-04-18T04:43:16.668Z,99737.04
2023-04-18T04:45:44.773Z,99738.42
2023-04-18T04:48:12.623Z,99735.11
2023-04-18T04:50:40.508Z,99729.02
2023-04-18T04:53:08.246Z,99730.95
2023-04-18T04:55:36.220Z,99734.94
2023-04-18T04:58:03.871Z,99735.82
2023-04-18T05:00:31.646Z,99745.39
2023-04-18T05:03:00.173Z,99743.64
2023-04-18T05:05:28.092Z,99745.05
2023-04-18T05:07:55.741Z,99744.52
2023-04-18T05:10:24.124Z,99740.18
2023-04-18T05:12:51.889Z,99737.58
2023-04-18T05:15:19.544Z,99736.52
2023-04-18T05:17:47.180Z,99736.70
2023-04-18T05:20:15.168Z,99742.79
2023-04-18T05:22:42.941Z,99744.53
2023-04-18T05:25:10.808Z,99740.55
2023-04-18T05:27:38.512Z,99745.08
2023-04-18T05:30:06.232Z,99752.73
2023-04-18T05:32:33.929Z,99753.77
2023-04-18T05:35:01.662Z,99754.30
2023-04-18T05:37:29.426Z,99759.88
2023-04-18T05:39:58.758Z,99762.86
2023-04-18T05:42:28.230Z,99763.73
2023-04-18T05:44:56.109Z,99762.02
2023-04-18T05:47:26.920Z,99764.09
2023-04-18T05:49:54.801Z,99763.92
2023-04-18T05:52:22.567Z,99764.99
2023-04-18T05:54:50.227Z,99762.73
2023-04-18T05:57:17.900Z,99767.61
2023-04-18T05:59:45.659Z,99766.79
2023-04-18T06:02:13.878Z,99766.27
2023-04-18T06:04:45.476Z,99765.40
2023-04-18T06:07:13.478Z,99761.06
2023-04-18T06:09:41.320Z,99761.05
2023-04-18T06:12:08.982Z,99764.89
2023-04-18T06:14:36.752Z,99762.82
2023-04-18T06:17:04.418Z,99766.84
2023-04-18T06:19:32.066Z,99768.59
2023-04-18T06:21:59.727Z,99770.34
2023-04-18T06:24:27.972Z,99773.30
2023-04-18T06:26:57.631Z,99775.06
2023-04-18T06:29:27.423Z,99773.32
2023-04-18T06:31:55.119Z,99771.23
2023-04-18T06:34:22.953Z,99769.50
2023-04-18T06:36:50.613Z,99765.33
2023-04-18T06:39:18.481Z,99766.55
2023-04-18T06:41:46.141Z,99767.07
2023-04-18T06:44:13.813Z,99772.30
2023-04-18T06:46:41.465Z,99775.96
2023-04-18T06:49:09.125Z,99777.71
2023-04-18T06:51:36.888Z,99775.44
2023-04-18T06:54:04.654Z,99777.02
2023-04-18T06:56:33.471Z,99773.87
2023-04-18T06:59:02.848Z,99776.67
2023-04-18T07:01:30.566Z,99781.89
2023-04-18T07:03:58.326Z,99780.67
2023-04-18T07:06:26.957Z,99778.58
2023-04-18T07:09:00.195Z,99784.52
2023-04-18T07:11:28.013Z,99779.27
2023-04-18T07:13:55.783Z,99781.89
2023-04-18T07:16:23.635Z,99783.80
2023-04-18T07:18:51.917Z,99784.34
2023-04-18T07:21:19.585Z,99783.98
2023-04-18T07:23:47.265Z,99781.36
2023-04-18T07:26:15.006Z,99784.68
2023-04-18T07:28:42.770Z,99782.05
2023-04-18T07:31:11.807Z,99781.36
2023-04-18T07:33:39.632Z,99790.77
2023-04-18T07:36:07.414Z,99789.38
2023-04-18T07:38:38.127Z,99793.91
2023-04-18T07:41:05.790Z,99792.85
2023-04-18T07:43:33.573Z,99789.19
2023-04-18T07:46:01.387Z,99793.20
2023-04-18T07:48:29.083Z,99794.25
2023-04-18T07:50:56.847Z,99797.73
2023-04-18T07:53:24.517Z,99798.42
2023-04-18T07:55:52.172Z,99797.88
2023-04-18T07:58:20.045Z,99793.52
2023-04-18T08:00:47.836Z,99795.77
2023-04-18T08:03:16.399Z,99797.70
2023-04-18T08:05:44.380Z,99793.67
2023-04-18T08:08:12.146Z,99797.16
2023-04-18T08:10:39.986Z,99798.70
2023-04-18T08:13:08.360Z,99792.41
2023-04-18T08:15:36.233Z,99795.02
2023-04-18T08:18:04.043Z,99796.77
2023-04-18T08:20:31.860Z,99798.47
2023-04-18T08:23:05.634Z,99800.55
2023-04-18T08:25:36.457Z,99800.19
2023-04-18T08:28:04.596Z,99804.88
2023-04-18T08:30:32.342Z,99806.10
2023-04-18T08:33:00.391Z,99807.64
2023-04-18T08:35:28.288Z,99808.85
2023-04-18T08:37:56.045Z,99807.78
2023-04-18T08:40:23.809Z,99809.18
2023-04-18T08:42:51.469Z,99809.35
2023-04-18T08:45:19.126Z,99812.13
2023-04-18T08:47:46.933Z,99809.33
2023-04-18T08:50:14.666Z,99810.16
2023-04-18T08:52:44.572Z,99811.33
2023-04-18T08:55:12.227Z,99808.67
2023-04-18T08:57:40.099Z,99807.60
2023-04-18T09:00:10.828Z,99808.77
2023-04-18T09:02:42.427Z,99811.86
2023-04-18T09:05:10.660Z,99811.66
2023-04-18T09:07:38.431Z,99812.52
2023-04-18T09:10:06.189Z,99813.20
2023-04-18T09:12:34.769Z,99816.50
2023-04-18T09:15:03.863Z,99812.11
2023-04-18T09:17:31.896Z,99813.31
2023-04-18T09:20:00.132Z,99814.00
2023-04-18T09:22:27.975Z,99813.82
2023-04-18T09:24:57.581Z,99817.66
2023-04-18T09:27:25.355Z,99812.54
2023-04-18T09:29:56.525Z,99810.92
2023-04-18T09:32:25.707Z,99812.47
2023-04-18T09:34:54.578Z,99814.73
2023-04-18T09:37:22.244Z,99817.86
2023-04-18T09:39:51.134Z,99810.60
2023-04-18T09:42:19.000Z,99809.29
2023-04-18T09:44:46.664Z,99808.13
2023-04-18T09:47:14.325Z,99809.45
2023-04-18T09:49:41.986Z,99811.14
2023-04-18T09:52:09.648Z,99809.66
2023-04-18T09:54:37.407Z,99812.08
2023-04-18T09:57:05.074Z,99808.71
2023-04-18T09:59:32.742Z,99808.34
2023-04-18T10:02:00.654Z,99811.27
2023-04-18T10:04:28.579Z,99804.56
2023-04-18T10:06:56.638Z,99803.27
2023-04-18T10:09:24.505Z,99798.86
2023-04-18T10:11:52.181Z,99797.27
2023-04-18T10:14:20.033Z,99791.11
2023-04-18T10:16:49.899Z,99799.66
2023-04-18T10:19:18.655Z,99797.31
2023-04-18T10:21:46.397Z,99795.45
2023-04-18T10:24:14.219Z,99793.65
2023-04-18T10:26:42.135Z,99790.99
2023-04-18T10:29:10.212Z,99792.20
2023-04-18T10:31:37.891Z,99790.95
2023-04-18T10:34:06.269Z,99790.18
2023-04-18T10:36:34.208Z,99791.21
2023-04-18T10:39:03.732Z,99785.94
2023-04-18T10:41:31.461Z,99786.27
2023-04-18T10:43:59.148Z,99789.25
2023-04-18T10:46:32.228Z,99777.30
2023-04-18T10:49:00.622Z,99779.88
2023-04-18T10:51:29.399Z,99782.33
2023-04-18T10:53:57.356Z,99780.20
2023-04-18T10:56:26.362Z,99775.27
2023-04-18T10:58:54.332Z,99776.28
2023-04-18T11:01:22.029Z,99773.31
2023-04-18T11:03:49.924Z,99773.84
2023-04-18T11:06:17.624Z,99769.64
2023-04-18T11:08:45.902Z,99766.12
2023-04-18T11:11:13.561Z,99766.63
2023-04-18T11:13:41.327Z,99765.59
2023-04-18T11:16:09.117Z,99762.79
2023-04-18T11:18:36.856Z,99764.19
2023-04-18T11:21:04.727Z,99763.32
2023-04-18T11:23:32.601Z,99758.77
2023-04-18T11:26:00.662Z,99759.66
2023-04-18T11:28:28.936Z,99763.39
2023-04-18T11:30:56.698Z,99759.05
2023-04-18T11:33:24.974Z,99756.23
2023-04-18T11:35:52.634Z,99751.29
2023-04-18T11:38:21.305Z,99750.89
2023-04-18T11:40:50.640Z,99748.24
2023-04-18T11:43:18.487Z,99750.13
2023-04-18T11:45:46.156Z,99744.65
2023-04-18T11:48:14.023Z,99741.81
2023-04-18T11:50:41.675Z,99739.34
2023-04-18T11:53:09.338Z,99738.09
2023-04-18T11:55:37.000Z,99735.11
2023-04-18T11:58:04.864Z,99737.39
2023-04-18T12:00:33.062Z,99734.59
2023-04-18T12:03:02.086Z,99726.87
2023-04-18T12:05:30.295Z,99729.47
2023-04-18T12:07:58.277Z,99729.27
2023-04-18T12:10:26.661Z,99726.93
2023-04-18T12:12:54.424Z,99726.38
2023-04-18T12:15:24.437Z,99726.56
2023-04-18T12:17:52.469Z,99725.67
2023-04-18T12:20:20.380Z,99725.27
2023-04-18T12:22:49.678Z,99718.77
2023-04-18T12:25:23.560Z,99717.36
2023-04-18T12:27:53.907Z,99718.73
2023-04-18T12:30:22.589Z,99717.11
2023-04-18T12:32:50.276Z,99713.92
2023-04-18T12:35:18.529Z,99716.04
2023-04-18T12:37:46.705Z,99713.73
2023-04-18T12:40:14.359Z,99715.13
2023-04-18T12:42:42.228Z,99710.34
2023-04-18T12:45:09.889Z,99709.41
2023-04-18T12:47:37.517Z,99711.09
2023-04-18T12:50:06.039Z,99708.39
2023-04-18T12:52:33.899Z,99707.27
2023-04-18T12:55:01.694Z,99698.95
2023-04-18T12:57:31.625Z,99700.30
2023-04-18T12:59:59.548Z,99698.80
2023-04-18T13:02:29.488Z,99700.13
2023-04-18T13:04:57.548Z,99693.03
2023-04-18T13:07:34.619Z,99691.50
2023-04-18T13:10:02.399Z,99687.05
2023-04-18T13:12:30.871Z,99686.42
2023-04-18T13:14:58.686Z,99683.90
2023-04-18T13:17:26.500Z,99682.65
2023-04-18T13:19:54.157Z,99680.94
2023-04-18T13:22:21.940Z,99675.55
2023-04-18T13:24:49.684Z,99677.36
2023-04-18T13:27:17.355Z,99680.05
2023-04-18T13:29:46.033Z,99679.60
2023-04-18T13:32:13.748Z,99678.96
2023-04-18T13:34:41.561Z,99680.78
2023-04-18T13:37:09.529Z,99681.04
2023-04-18T13:39:37.190Z,99682.19
2023-04-18T13:42:04.959Z,99682.90
2023-04-18T13:44:32.723Z,99680.21
2023-04-18T13:47:00.383Z,99682.95
2023-04-18T13:49:28.056Z,99682.21
2023-04-18T13:51:57.861Z,99678.55
2023-04-18T13:54:26.745Z,99679.78
2023-04-18T13:56:54.510Z,99679.27
2023-04-18T13:59:22.275Z,99678.30
2023-04-18T14:01:50.006Z,99682.88
2023-04-18T14:04:18.235Z,99676.76
2023-04-18T14:06:47.869Z,99679.94
2023-04-18T14:09:17.129Z,99680.63
2023-04-18T14:11:44.883Z,99678.84
2023-04-18T14:14:12.554Z,99682.84
2023-04-18T14:16:49.438Z,99675.29
2023-04-18T14:19:18.102Z,99678.23
2023-04-18T14:21:45.773Z,99673.50
2023-04-18T14:24:13.532Z,99668.44
2023-04-18T14:26:41.297Z,99669.69
2023-04-18T14:29:08.996Z,99667.64
2023-04-18T14:31:36.777Z,99668.48
2023-04-18T14:34:04.590Z,99668.79
2023-04-18T14:36:32.865Z,99669.71
2023-04-18T14:39:00.735Z,99670.23
2023-04-18T14:41:28.495Z,99669.25
2023-04-18T14:43:56.363Z,99671.89
2023-04-18T14:46:24.155Z,99671.69
2023-04-18T14:48:52.001Z,99665.61
2023-04-18T14:51:19.756Z,99670.23
2023-04-18T14:53:47.519Z,99668.21
2023-04-18T14:56:16.439Z,99669.69
2023-04-18T14:58:44.209Z,99668.58
2023-04-18T15:01:11.942Z,99666.05
2023-04-18T15:03:40.298Z,99670.52
2023-04-18T15:06:08.079Z,99664.44
2023-04-18T15:08:36.353Z,99662.73
2023-04-18T15:11:04.540Z,99663.26
2023-04-18T15:13:32.601Z,99663.26
2023-04-18T15:16:00.286Z,99661.84
2023-04-18T15:18:28.030Z,99662.38
2023-04-18T15:20:57.227Z,99665.71
2023-04-18T15:23:24.997Z,99662.75
2023-04-18T15:25:52.651Z,99661.89
2023-04-18T15:28:20.421Z,99661.95
2023-04-18T15:30:48.077Z,99664.75
2023-04-18T15:33:16.055Z,99662.50
2023-04-18T15:35:43.720Z,99659.55
2023-04-18T15:38:11.745Z,99657.45
2023-04-18T15:40:39.443Z,99656.39
2023-04-18T15:43:07.209Z,99656.04
2023-04-18T15:45:34.873Z,99654.48
2023-04-18T15:48:02.607Z,99655.70
2023-04-18T15:50:32.838Z,99653.08
2023-04-18T15:53:01.744Z,99649.58
2023-04-18T15:55:29.411Z,99650.45
2023-04-18T15:57:57.291Z,99652.56
2023-04-18T16:00:25.035Z,99651.90
2023-04-18T16:02:52.865Z,99650.19
2023-04-18T16:05:20.663Z,99649.71
2023-04-18T16:07:48.336Z,99647.79
2023-04-18T16:10:16.199Z,99650.79
2023-04-18T16:12:43.904Z,99651.12
2023-04-18T16:15:11.617Z,99651.48
2023-04-18T16:17:39.422Z,99646.59
2023-04-18T16:20:08.783Z,99650.27
2023-04-18T16:22:36.556Z,99647.67
2023-04-18T16:25:04.424Z,99644.70
2023-04-18T16:27:32.384Z,99644.55
2023-04-18T16:30:00.049Z,99645.08
2023-04-18T16:32:27.754Z,99644.58
2023-04-18T16:34:55.579Z,99644.94
2023-04-18T16:37:23.350Z,99644.09
2023-04-18T16:39:51.316Z,99643.39
2023-04-18T16:42:19.292Z,99646.73
2023-04-18T16:44:47.456Z,99645.34
2023-04-18T16:47:15.536Z,99650.08
2023-04-18T16:49:44.998Z,99648.70
2023-04-18T16:52:12.794Z,99649.40
2023-04-18T16:54:40.560Z,99646.45
2023-04-18T16:57:08.223Z,99647.00
2023-04-18T16:59:35.986Z,99645.45
2023-04-18T17:02:03.741Z,99645.12
2023-04-18T17:04:31.622Z,99645.30
2023-04-18T17:06:59.384Z,99644.28
2023-04-18T17:09:27.142Z,99646.58
2023-04-18T17:11:54.971Z,99647.14
2023-04-18T17:14:22.671Z,99649.27
2023-04-18T17:16:53.353Z,99648.77
2023-04-18T17:19:21.475Z,99647.90
2023-04-18T17:21:51.128Z,99649.85
2023-04-18T17:24:19.053Z,99648.83
2023-04-18T17:26:46.712Z,99651.49
2023-04-18T17:29:14.583Z,99655.20
2023-04-18T17:31:42.619Z,99652.79
2023-04-18T17:34:10.418Z,99651.61
2023-04-18T17:36:38.079Z,99651.65
2023-04-18T17:39:06.813Z,99651.16
2023-04-18T17:41:34.733Z,99656.79
2023-04-18T17:44:02.493Z,99655.95
2023-04-18T17:46:30.508Z,99656.65
2023-04-18T17:48:58.225Z,99659.30
2023-04-18T17:51:27.526Z,99659.33
2023-04-18T17:53:55.289Z,99662.67
2023-04-18T17:56:23.079Z,99663.08
2023-04-18T17:58:51.650Z,99660.67
2023-04-18T18:01:19.842Z,99664.73
2023-04-18T18:03:48.384Z,99661.45
2023-04-18T18:06:16.487Z,99663.05
2023-04-18T18:08:44.241Z,99662.72
2023-04-18T18:11:12.003Z,99662.38
2023-04-18T18:13:39.761Z,99659.77
2023-04-18T18:16:07.940Z,99660.46
2023-04-18T18:18:36.624Z,99659.42
2023-04-18T18:21:04.383Z,99659.45
2023-04-18T18:23:32.160Z,99658.58
2023-04-18T18:25:59.915Z,99655.27
2023-04-18T18:28:27.681Z,99656.34
2023-04-18T18:30:57.834Z,99657.05
2023-04-18T18:33:25.559Z,99656.71
2023-04-18T18:35:53.740Z,99654.40
2023-04-18T18:38:21.907Z,99656.29
2023-04-18T18:40:49.673Z,99655.42
2023-04-18T18:43:17.334Z,99653.15
2023-04-18T18:45:45.001Z,99652.27
2023-04-18T18:48:12.819Z,99652.98
2023-04-18T18:50:42.057Z,99652.97
2023-04-18T18:53:10.331Z,99649.11
2023-04-18T18:55:37.999Z,99647.03
2023-04-18T18:58:08.122Z,99652.64
2023-04-18T19:00:35.779Z,99648.15
2023-04-18T19:03:03.736Z,99647.84
2023-04-18T19:05:31.619Z,99650.48
2023-04-18T19:07:59.273Z,99646.49
2023-04-18T19:10:26.954Z,99648.63
2023-04-18T19:12:54.720Z,99647.95
2023-04-18T19:15:23.080Z,99644.60
2023-04-18T19:17:50.869Z,99643.58
2023-04-18T19:20:18.609Z,99638.88
2023-04-18T19:22:46.267Z,99638.39
2023-04-18T19:25:14.035Z,99639.45
2023-04-18T19:27:41.697Z,99636.67
2023-04-18T19:30:09.367Z,99636.86
2023-04-18T19:32:37.350Z,99636.02
2023-04-18T19:35:06.017Z,99633.75
2023-04-18T19:37:36.543Z,99632.90
2023-04-18T19:40:07.184Z,99629.43
2023-04-18T19:42:35.145Z,99628.73
2023-04-18T19:45:02.917Z,99628.19
2023-04-18T19:47:34.056Z,99631.16
2023-04-18T19:50:03.670Z,99627.66
2023-04-18T19:52:31.427Z,99626.79
2023-04-18T19:54:59.077Z,99626.44
2023-04-18T19:57:27.974Z,99626.96
2023-04-18T19:59:56.042Z,99624.36
2023-04-18T20:02:24.346Z,99621.76
2023-04-18T20:04:52.437Z,99621.60
2023-04-18T20:07:20.361Z,99616.73
2023-04-18T20:09:48.019Z,99617.80
2023-04-18T20:12:15.760Z,99612.23
2023-04-18T20:14:43.548Z,99610.33
2023-04-18T20:17:11.419Z,99606.16
2023-04-18T20:19:39.078Z,99603.50
2023-04-18T20:22:06.946Z,99597.75
2023-04-18T20:24:39.556Z,99600.41
2023-04-18T20:27:07.588Z,99600.24
2023-04-18T20:29:35.260Z,99598.52
2023-04-18T20:32:03.035Z,99595.73
2023-04-18T20:34:31.813Z,99591.92
2023-04-18T20:37:00.208Z,99587.75
2023-04-18T20:39:28.375Z,99588.13
2023-04-18T20:41:57.931Z,99587.27
2023-04-18T20:44:25.625Z,99583.10
2023-04-18T20:46:53.797Z,99580.10
2023-04-18T20:49:21.565Z,99578.02
2023-04-18T20:51:49.225Z,99577.54
2023-04-18T20:54:17.339Z,99577.73
2023-04-18T20:56:45.589Z,99569.89
2023-04-18T20:59:13.334Z,99574.11
2023-04-18T21:01:41.496Z,99568.88
2023-04-18T21:04:09.774Z,99566.27
2023-04-18T21:06:37.566Z,99564.35
2023-04-18T21:09:05.318Z,99558.92
2023-04-18T21:11:33.086Z,99556.82
2023-04-18T21:14:00.845Z,99552.63
2023-04-18T21:16:28.690Z,99549.83
2023-04-18T21:18:56.470Z,99548.45
2023-04-18T21:21:24.136Z,99545.67
2023-04-18T21:23:51.802Z,99544.63
2023-04-18T21:26:19.559Z,99537.14
2023-04-18T21:28:47.222Z,99534.54
2023-04-18T21:31:14.942Z,99532.61
2023-04-18T21:33:42.751Z,99530.52
2023-04-18T21:36:10.408Z,99528.73
2023-04-18T21:38:38.078Z,99528.73
2023-04-18T21:41:05.736Z,99532.05
2023-04-18T21:43:33.398Z,99525.42
2023-04-18T21:46:01.173Z,99523.69
2023-04-18T21:48:28.933Z,99522.45
2023-04-18T21:50:56.689Z,99519.81
2023-04-18T21:53:24.350Z,99520.36
2023-04-18T21:55:52.120Z,99520.35
2023-04-18T21:58:19.886Z,99519.48
2023-04-18T22:00:47.660Z,99515.60
2023-04-18T22:03:19.342Z,99515.78
2023-04-18T22:05:47.585Z,99513.33
2023-04-18T22:08:16.361Z,99514.71
2023-04-18T22:10:45.051Z,99513.14
2023-04-18T22:13:12.711Z,99517.15
2023-04-18T22:15:41.197Z,99514.71
2023-04-18T22:18:08.924Z,99513.45
2023-04-18T22:20:36.822Z,99509.61
2023-04-18T22:23:04.689Z,99504.90
2023-04-18T22:25:32.352Z,99505.43
2023-04-18T22:27:59.958Z,99498.46
2023-04-18T22:30:27.885Z,99499.88
2023-04-18T22:32:55.694Z,99496.58
2023-04-18T22:35:23.510Z,99495.19
2023-04-18T23:32:23.630Z,99437.39
2023-04-18T23:34:51.563Z,99430.44
2023-04-18T23:37:19.329Z,99424.16
2023-04-18T23:39:46.988Z,99420.69
2023-04-18T23:42:14.650Z,99417.90
2023-04-18T23:44:42.416Z,99414.77
2023-04-18T23:47:10.155Z,99412.29
2023-04-18T23:49:37.940Z,99410.03
2023-04-18T23:52:05.612Z,99404.83
2023-04-18T23:54:33.263Z,99401.69
2023-04-18T23:57:01.950Z,99399.07
2023-04-18T23:59:29.611Z,99396.64
